Time;durP1;ratioP1;P1;durP2;ratioP2;P2;SDS_P1;SDS_P2;PMS_P1;PMS_P2;Temp;Humidity;BMP_temperature;BMP_pressure;BME280_temperature;BME280_humidity;BME280_pressure;Samples;Min_cycle;Max_cycle;Signal;HPM_P1;HPM_P2
2023/03/18 00:01:21;;;;;;;3.80;3.50;;;;;;;;;;5092896;28;20207;-81
2023/03/18 00:03:50;;;;;;;2.70;2.50;;;;;;;;;;5092453;28;20236;-81
2023/03/18 00:06:19;;;;;;;2.80;2.70;;;;;;;;;;5092416;28;20228;-81
2023/03/18 00:08:49;;;;;;;1.10;1.10;;;;;;;;;;5092493;28;20250;-81
2023/03/18 00:11:18;;;;;;;1.93;1.83;;;;;;;;;;5092082;28;20289;-81
2023/03/18 00:13:47;;;;;;;4.23;3.83;;;;;;;;;;5092362;28;20233;-81
2023/03/18 00:16:18;;;;;;;0.80;0.80;;;;;;;;;;5092450;28;20193;-81
2023/03/18 00:18:47;;;;;;;3.97;3.67;;;;;;;;;;5092232;28;20205;-81
2023/03/18 00:21:17;;;;;;;0.60;0.60;;;;;;;;;;5092286;28;20549;-81
2023/03/18 00:23:47;;;;;;;0.70;0.70;;;;;;;;;;5092144;28;20236;-81
2023/03/18 00:26:16;;;;;;;0.90;0.90;;;;;;;;;;5092089;28;20212;-81
2023/03/18 00:28:45;;;;;;;4.73;4.33;;;;;;;;;;5092177;28;20209;-81
2023/03/18 00:31:14;;;;;;;10.23;7.27;;;;;;;;;;5092410;28;20212;-81
2023/03/18 00:33:44;;;;;;;21.43;13.37;;;;;;;;;;5092481;28;20246;-81
2023/03/18 00:36:13;;;;;;;13.40;10.00;;;;;;;;;;5092317;28;20296;-81
2023/03/18 00:38:42;;;;;;;23.73;16.80;;;;;;;;;;5091698;28;20197;-80
2023/03/18 00:41:11;;;;;;;25.13;16.80;;;;;;;;;;5092247;28;20196;-80
2023/03/18 00:43:45;;;;;;;15.43;10.77;;;;;;;;;;5091993;28;20211;-82
2023/03/18 00:46:16;;;;;;;28.60;19.57;;;;;;;;;;5091796;28;20248;-82
2023/03/18 00:48:46;;;;;;;22.10;14.90;;;;;;;;;;5091721;28;20205;-82
2023/03/18 00:51:16;;;;;;;31.10;18.50;;;;;;;;;;5092053;28;20197;-82
2023/03/18 00:53:45;;;;;;;31.50;23.83;;;;;;;;;;5091940;28;20294;-82
2023/03/18 00:56:14;;;;;;;38.70;21.97;;;;;;;;;;5092148;28;20220;-82
2023/03/18 00:58:42;;;;;;;33.13;22.20;;;;;;;;;;5091926;28;20256;-82
2023/03/18 01:01:12;;;;;;;24.17;17.80;;;;;;;;;;5091896;28;20301;-82
2023/03/18 01:03:42;;;;;;;38.90;21.10;;;;;;;;;;5092139;28;20284;-82
2023/03/18 01:06:12;;;;;;;33.57;18.80;;;;;;;;;;5091834;28;20232;-80
2023/03/18 01:08:41;;;;;;;29.93;19.93;;;;;;;;;;5091932;28;20283;-80
2023/03/18 01:11:10;;;;;;;23.80;18.77;;;;;;;;;;5091948;28;20335;-80
2023/03/18 01:13:39;;;;;;;30.20;16.77;;;;;;;;;;5091779;28;20239;-80
2023/03/18 01:16:08;;;;;;;24.77;17.47;;;;;;;;;;5091918;28;20197;-80
2023/03/18 01:18:37;;;;;;;18.30;12.90;;;;;;;;;;5091897;28;20203;-80
2023/03/18 01:21:06;;;;;;;20.83;14.00;;;;;;;;;;5091989;28;20297;-80
2023/03/18 01:23:35;;;;;;;29.93;20.13;;;;;;;;;;5091802;28;20188;-80
2023/03/18 01:26:04;;;;;;;8.03;5.50;;;;;;;;;;5091688;28;20206;-80
2023/03/18 01:28:33;;;;;;;15.10;6.63;;;;;;;;;;5091719;28;20299;-80
2023/03/18 01:31:01;;;;;;;6.13;5.50;;;;;;;;;;5091779;28;20241;-80
2023/03/18 01:33:29;;;;;;;14.80;10.23;;;;;;;;;;5092687;28;20206;-81
2023/03/18 01:36:01;;;;;;;14.37;6.70;;;;;;;;;;5095052;28;20198;-81
2023/03/18 01:38:30;;;;;;;18.60;7.53;;;;;;;;;;5095108;28;20200;-80
2023/03/18 01:41:00;;;;;;;7.63;6.00;;;;;;;;;;5095603;28;20250;-81
2023/03/18 01:43:30;;;;;;;22.17;13.23;;;;;;;;;;5094866;28;20250;-81
2023/03/18 01:46:00;;;;;;;38.80;24.90;;;;;;;;;;5094954;28;20218;-81
2023/03/18 01:48:29;;;;;;;41.50;28.47;;;;;;;;;;5095016;28;20204;-81
2023/03/18 01:50:59;;;;;;;39.10;29.90;;;;;;;;;;5095025;28;20230;-81
2023/03/18 01:53:30;;;;;;;38.67;27.80;;;;;;;;;;5094499;28;20302;-80
2023/03/18 01:56:00;;;;;;;46.80;29.33;;;;;;;;;;5094955;28;20206;-80
2023/03/18 01:58:30;;;;;;;35.47;20.50;;;;;;;;;;5094870;28;20200;-80
2023/03/18 02:01:01;;;;;;;24.57;16.00;;;;;;;;;;5094523;28;20260;-80
2023/03/18 02:03:30;;;;;;;29.77;18.40;;;;;;;;;;5094732;28;20222;-80
2023/03/18 02:05:58;;;;;;;5.77;5.27;;;;;;;;;;5094405;28;20466;-80
2023/03/18 02:08:27;;;;;;;3.57;3.30;;;;;;;;;;5094296;28;20223;-80
2023/03/18 02:10:56;;;;;;;8.13;6.77;;;;;;;;;;5094149;28;20283;-80
2023/03/18 02:13:26;;;;;;;19.87;12.27;;;;;;;;;;5094624;28;20196;-80
2023/03/18 02:15:56;;;;;;;13.97;11.03;;;;;;;;;;5094810;28;20266;-80
2023/03/18 02:18:28;;;;;;;19.70;12.87;;;;;;;;;;5094211;28;20222;-80
2023/03/18 02:21:12;;;;;;;13.47;9.23;;;;;;;;;;5094365;28;20207;-80
2023/03/18 02:23:43;;;;;;;32.07;20.13;;;;;;;;;;5092389;28;20206;-80
2023/03/18 02:26:14;;;;;;;34.93;22.27;;;;;;;;;;5093965;28;20235;-80
2023/03/18 02:28:45;;;;;;;33.30;18.77;;;;;;;;;;5094202;28;20223;-80
2023/03/18 02:31:16;;;;;;;23.53;17.37;;;;;;;;;;5094003;28;20299;-80
2023/03/18 02:33:46;;;;;;;14.37;10.17;;;;;;;;;;5094012;28;20432;-80
2023/03/18 02:36:18;;;;;;;34.57;21.53;;;;;;;;;;5094228;28;20199;-80
2023/03/18 02:38:47;;;;;;;32.00;19.73;;;;;;;;;;5093574;28;20256;-81
2023/03/18 02:41:16;;;;;;;38.13;24.47;;;;;;;;;;5093907;28;20538;-81
2023/03/18 02:43:46;;;;;;;27.90;20.30;;;;;;;;;;5093753;28;20299;-81
2023/03/18 02:46:22;;;;;;;30.47;18.67;;;;;;;;;;5093721;28;20268;-80
2023/03/18 02:48:51;;;;;;;32.23;21.13;;;;;;;;;;5093974;28;20218;-80
2023/03/18 02:51:20;;;;;;;21.80;14.90;;;;;;;;;;5094185;28;20211;-80
2023/03/18 02:53:49;;;;;;;19.03;13.70;;;;;;;;;;5093762;28;20234;-80
2023/03/18 02:56:17;;;;;;;38.63;26.13;;;;;;;;;;5093589;28;20207;-80
2023/03/18 02:58:47;;;;;;;30.90;18.67;;;;;;;;;;5093627;28;20206;-80
2023/03/18 03:01:19;;;;;;;39.53;19.90;;;;;;;;;;5093454;28;20226;-80
2023/03/18 03:03:47;;;;;;;29.57;19.53;;;;;;;;;;5093521;28;20299;-80
2023/03/18 03:06:16;;;;;;;30.73;20.23;;;;;;;;;;5093215;28;20226;-80
2023/03/18 03:08:44;;;;;;;42.00;26.67;;;;;;;;;;5093146;28;20214;-80
2023/03/18 03:11:13;;;;;;;33.43;23.27;;;;;;;;;;5092978;28;20258;-80
2023/03/18 03:13:44;;;;;;;2.53;2.43;;;;;;;;;;5093218;28;20242;-80
2023/03/18 03:16:14;;;;;;;15.93;10.70;;;;;;;;;;5093363;28;20422;-80
2023/03/18 03:18:42;;;;;;;2.00;2.00;;;;;;;;;;5093500;28;20228;-80
2023/03/18 03:21:11;;;;;;;1.97;1.97;;;;;;;;;;5093329;28;20292;-80
2023/03/18 03:23:40;;;;;;;1.43;1.43;;;;;;;;;;5093138;28;20202;-79
2023/03/18 03:26:08;;;;;;;1.77;1.67;;;;;;;;;;5092829;28;20281;-79
2023/03/18 03:28:37;;;;;;;5.03;4.73;;;;;;;;;;5092827;28;20215;-79
2023/03/18 03:31:05;;;;;;;2.37;2.23;;;;;;;;;;5092941;28;20215;-80
2023/03/18 03:33:36;;;;;;;2.60;2.50;;;;;;;;;;5092704;28;20189;-80
2023/03/18 03:36:05;;;;;;;1.33;1.33;;;;;;;;;;5092809;28;20203;-80
2023/03/18 03:38:33;;;;;;;2.03;1.57;;;;;;;;;;5093140;28;20193;-79
2023/03/18 03:41:02;;;;;;;5.17;4.67;;;;;;;;;;5093043;28;20204;-80
2023/03/18 03:43:30;;;;;;;4.93;3.87;;;;;;;;;;5092726;28;20208;-79
2023/03/18 03:45:58;;;;;;;2.00;1.93;;;;;;;;;;5092828;28;20296;-81
2023/03/18 03:48:27;;;;;;;3.23;3.03;;;;;;;;;;5092756;28;20248;-81
2023/03/18 03:50:57;;;;;;;0.90;0.90;;;;;;;;;;5092184;28;20242;-81
2023/03/18 03:53:27;;;;;;;0.70;0.70;;;;;;;;;;5092869;28;20201;-81
2023/03/18 03:55:55;;;;;;;2.37;2.30;;;;;;;;;;5092294;28;20204;-81
2023/03/18 03:58:26;;;;;;;14.80;11.57;;;;;;;;;;5092661;28;20211;-81
2023/03/18 04:00:54;;;;;;;25.60;18.20;;;;;;;;;;5092426;28;20206;-81
2023/03/18 04:03:24;;;;;;;4.40;4.20;;;;;;;;;;5092408;28;20232;-81
2023/03/18 04:05:52;;;;;;;18.93;15.07;;;;;;;;;;5092582;28;20315;-81
2023/03/18 04:08:22;;;;;;;2.10;1.47;;;;;;;;;;5092450;28;20219;-81
2023/03/18 04:10:50;;;;;;;19.77;16.00;;;;;;;;;;5091865;28;20271;-81
2023/03/18 04:13:19;;;;;;;2.03;1.93;;;;;;;;;;5092955;28;20295;-81
2023/03/18 04:15:47;;;;;;;1.00;1.00;;;;;;;;;;5092620;28;20253;-81
2023/03/18 04:18:16;;;;;;;2.50;2.30;;;;;;;;;;5092182;28;20230;-81
2023/03/18 04:20:45;;;;;;;1.57;1.57;;;;;;;;;;5092461;28;20205;-81
2023/03/18 04:23:14;;;;;;;0.70;0.70;;;;;;;;;;5092325;28;20200;-81
2023/03/18 04:25:44;;;;;;;0.80;0.80;;;;;;;;;;5092018;28;20263;-81
2023/03/18 04:28:13;;;;;;;1.10;1.10;;;;;;;;;;5092436;28;20219;-81
2023/03/18 04:30:41;;;;;;;0.83;0.83;;;;;;;;;;5092116;28;20208;-81
2023/03/18 04:33:09;;;;;;;17.10;12.17;;;;;;;;;;5092172;28;20200;-81
2023/03/18 04:35:38;;;;;;;18.37;11.27;;;;;;;;;;5092573;28;20278;-81
2023/03/18 04:38:06;;;;;;;3.30;3.20;;;;;;;;;;5091884;28;20189;-81
2023/03/18 04:40:34;;;;;;;23.50;18.20;;;;;;;;;;5091953;28;20205;-81
2023/03/18 04:43:04;;;;;;;11.50;6.67;;;;;;;;;;5092130;28;20231;-81
2023/03/18 04:45:32;;;;;;;7.47;5.00;;;;;;;;;;5092300;28;20211;-81
2023/03/18 04:48:01;;;;;;;23.30;16.03;;;;;;;;;;5091893;28;20252;-81
2023/03/18 04:50:29;;;;;;;25.73;18.93;;;;;;;;;;5092142;28;20205;-81
2023/03/18 04:52:59;;;;;;;24.23;18.67;;;;;;;;;;5091743;28;20200;-81
2023/03/18 04:55:27;;;;;;;18.80;14.70;;;;;;;;;;5092031;28;20302;-81
2023/03/18 04:57:55;;;;;;;18.23;12.27;;;;;;;;;;5091844;28;20482;-81
2023/03/18 05:00:25;;;;;;;18.17;12.67;;;;;;;;;;5092395;28;20208;-81
2023/03/18 05:02:54;;;;;;;9.83;8.87;;;;;;;;;;5091876;28;20206;-81
2023/03/18 05:05:22;;;;;;;13.63;8.40;;;;;;;;;;5091949;28;20380;-81
2023/03/18 05:07:50;;;;;;;11.27;9.17;;;;;;;;;;5092137;28;20297;-81
2023/03/18 05:10:19;;;;;;;23.10;17.70;;;;;;;;;;5095510;28;20267;-81
2023/03/18 05:12:48;;;;;;;19.10;14.83;;;;;;;;;;5095627;28;20291;-81
2023/03/18 05:15:17;;;;;;;18.40;11.60;;;;;;;;;;5095553;28;20284;-81
2023/03/18 05:17:46;;;;;;;19.63;15.43;;;;;;;;;;5095790;28;20239;-81
2023/03/18 05:20:15;;;;;;;28.10;20.73;;;;;;;;;;5095544;28;20259;-81
2023/03/18 05:22:43;;;;;;;29.73;20.77;;;;;;;;;;5095274;28;20201;-81
2023/03/18 05:25:12;;;;;;;12.63;9.67;;;;;;;;;;5095420;28;20197;-81
2023/03/18 05:27:40;;;;;;;16.67;12.07;;;;;;;;;;5095127;28;20203;-81
2023/03/18 05:30:09;;;;;;;3.33;3.03;;;;;;;;;;5095153;28;20212;-81
2023/03/18 05:32:38;;;;;;;25.90;15.40;;;;;;;;;;5095425;28;20238;-81
2023/03/18 05:35:09;;;;;;;17.90;14.90;;;;;;;;;;5095238;28;20364;-81
2023/03/18 05:37:37;;;;;;;30.80;25.13;;;;;;;;;;5095180;28;20204;-81
2023/03/18 05:40:08;;;;;;;39.90;28.60;;;;;;;;;;5094941;28;20228;-81
2023/03/18 05:42:37;;;;;;;31.73;24.80;;;;;;;;;;5095154;28;20257;-81
2023/03/18 05:45:22;;;;;;;31.37;24.10;;;;;;;;;;5094975;28;20196;-81
2023/03/18 05:47:51;;;;;;;36.73;30.67;;;;;;;;;;5095064;28;20188;-81
2023/03/18 05:50:28;;;;;;;35.37;26.50;;;;;;;;;;5094656;28;20221;-81
2023/03/18 05:52:57;;;;;;;36.17;26.77;;;;;;;;;;5094721;28;20214;-81
2023/03/18 05:55:27;;;;;;;22.70;15.97;;;;;;;;;;5094614;28;20197;-81
2023/03/18 05:57:55;;;;;;;30.23;25.27;;;;;;;;;;5095064;28;20204;-81
2023/03/18 06:00:24;;;;;;;21.87;16.73;;;;;;;;;;5094960;28;20311;-81
2023/03/18 06:02:52;;;;;;;24.80;16.27;;;;;;;;;;5094969;28;20200;-81
2023/03/18 06:05:23;;;;;;;33.17;25.33;;;;;;;;;;5094399;28;20225;-81
2023/03/18 06:07:52;;;;;;;23.67;15.87;;;;;;;;;;5094588;28;20517;-81
2023/03/18 06:10:21;;;;;;;13.67;10.63;;;;;;;;;;5094137;28;20269;-81
2023/03/18 06:12:50;;;;;;;19.93;14.80;;;;;;;;;;5094225;28;20479;-81
2023/03/18 06:15:20;;;;;;;9.07;6.90;;;;;;;;;;5094342;28;20208;-81
2023/03/18 06:17:48;;;;;;;8.47;7.37;;;;;;;;;;5094475;28;20212;-81
2023/03/18 06:20:18;;;;;;;23.53;17.47;;;;;;;;;;5093622;28;20250;-81
2023/03/18 06:22:48;;;;;;;33.83;24.63;;;;;;;;;;5094098;28;20200;-81
2023/03/18 06:25:18;;;;;;;25.60;17.87;;;;;;;;;;5094336;28;20204;-81
2023/03/18 06:27:48;;;;;;;31.90;24.70;;;;;;;;;;5094165;28;20214;-81
2023/03/18 06:30:17;;;;;;;22.87;18.20;;;;;;;;;;5094200;28;20246;-81
2023/03/18 06:32:45;;;;;;;31.67;23.33;;;;;;;;;;5094017;28;20196;-81
2023/03/18 06:35:15;;;;;;;30.27;21.73;;;;;;;;;;5094023;28;20239;-81
2023/03/18 06:37:43;;;;;;;31.27;22.43;;;;;;;;;;5094043;28;20206;-81
2023/03/18 06:40:14;;;;;;;24.87;19.17;;;;;;;;;;5094104;28;20193;-81
2023/03/18 06:42:43;;;;;;;36.23;28.27;;;;;;;;;;5093901;28;20208;-81
2023/03/18 06:45:12;;;;;;;7.07;6.33;;;;;;;;;;5093840;28;20199;-81
2023/03/18 06:47:41;;;;;;;28.53;24.00;;;;;;;;;;5093739;28;20302;-81
2023/03/18 06:50:12;;;;;;;37.83;31.13;;;;;;;;;;5093546;28;20217;-81
2023/03/18 06:52:41;;;;;;;33.30;25.50;;;;;;;;;;5093937;28;20332;-81
2023/03/18 06:55:10;;;;;;;31.03;24.20;;;;;;;;;;5093703;28;20203;-81
2023/03/18 06:57:40;;;;;;;15.57;12.90;;;;;;;;;;5093489;28;20268;-81
2023/03/18 07:00:09;;;;;;;20.97;14.83;;;;;;;;;;5093771;28;20201;-81
2023/03/18 07:02:37;;;;;;;19.40;13.90;;;;;;;;;;5093610;28;20231;-81
2023/03/18 07:05:07;;;;;;;23.67;16.90;;;;;;;;;;5093424;28;20834;-81
2023/03/18 07:07:37;;;;;;;25.50;19.80;;;;;;;;;;5093595;28;20260;-81
2023/03/18 07:10:06;;;;;;;31.47;25.07;;;;;;;;;;5092964;28;20258;-81
2023/03/18 07:12:35;;;;;;;31.97;24.10;;;;;;;;;;5093182;28;20283;-81
2023/03/18 07:15:05;;;;;;;40.60;33.93;;;;;;;;;;5093266;28;20205;-81
2023/03/18 07:17:34;;;;;;;35.60;30.40;;;;;;;;;;5093443;28;20210;-81
2023/03/18 07:20:04;;;;;;;36.67;32.60;;;;;;;;;;5093346;28;20197;-81
2023/03/18 07:22:32;;;;;;;29.53;23.17;;;;;;;;;;5092941;28;20390;-81
2023/03/18 07:25:01;;;;;;;23.10;17.03;;;;;;;;;;5093251;28;20207;-81
2023/03/18 07:27:29;;;;;;;27.53;19.93;;;;;;;;;;5093153;28;20322;-81
2023/03/18 07:29:58;;;;;;;36.23;32.07;;;;;;;;;;5092573;28;20209;-81
2023/03/18 07:32:30;;;;;;;30.43;27.00;;;;;;;;;;5092484;28;20200;-81
2023/03/18 07:34:59;;;;;;;33.20;28.13;;;;;;;;;;5093130;28;20227;-81
2023/03/18 07:37:27;;;;;;;25.33;21.33;;;;;;;;;;5092964;28;20239;-81
2023/03/18 07:39:56;;;;;;;27.07;22.33;;;;;;;;;;5092845;28;20203;-81
2023/03/18 07:42:24;;;;;;;31.33;24.90;;;;;;;;;;5092832;28;20215;-81
2023/03/18 07:44:54;;;;;;;18.20;16.27;;;;;;;;;;5092732;28;20215;-80
2023/03/18 07:47:23;;;;;;;34.10;30.23;;;;;;;;;;5092905;28;20205;-80
2023/03/18 07:49:53;;;;;;;33.63;30.30;;;;;;;;;;5092928;28;20216;-80
2023/03/18 07:52:22;;;;;;;41.37;37.33;;;;;;;;;;5092571;28;20193;-79
2023/03/18 07:54:51;;;;;;;30.30;24.53;;;;;;;;;;5092896;28;20288;-80
2023/03/18 07:57:19;;;;;;;23.47;20.80;;;;;;;;;;5093080;28;20280;-80
2023/03/18 07:59:48;;;;;;;29.60;23.20;;;;;;;;;;5092367;28;20220;-80
2023/03/18 08:02:16;;;;;;;28.50;23.93;;;;;;;;;;5092638;28;20201;-80
2023/03/18 08:04:45;;;;;;;20.83;15.03;;;;;;;;;;5092431;28;20258;-79
2023/03/18 08:07:16;;;;;;;26.97;24.07;;;;;;;;;;5092164;28;20196;-80
2023/03/18 08:09:44;;;;;;;30.67;27.47;;;;;;;;;;5092148;28;20236;-80
2023/03/18 08:12:13;;;;;;;26.80;23.93;;;;;;;;;;5092414;28;20236;-80
2023/03/18 08:14:43;;;;;;;26.30;19.83;;;;;;;;;;5092540;28;20204;-80
2023/03/18 08:17:12;;;;;;;22.30;18.67;;;;;;;;;;5092625;28;20197;-79
2023/03/18 08:19:40;;;;;;;20.27;16.13;;;;;;;;;;5092133;28;20205;-80
2023/03/18 08:22:08;;;;;;;27.00;22.67;;;;;;;;;;5092502;28;20273;-80
2023/03/18 08:24:39;;;;;;;11.43;9.13;;;;;;;;;;5092475;28;20205;-80
2023/03/18 08:27:09;;;;;;;24.17;21.57;;;;;;;;;;5092257;28;20197;-79
2023/03/18 08:29:37;;;;;;;27.90;25.13;;;;;;;;;;5092319;28;20237;-79
2023/03/18 08:32:06;;;;;;;22.33;19.47;;;;;;;;;;5092272;28;20195;-80
2023/03/18 08:34:35;;;;;;;21.77;18.23;;;;;;;;;;5092050;28;20201;-80
2023/03/18 08:37:03;;;;;;;25.10;20.90;;;;;;;;;;5092365;28;20236;-79
2023/03/18 08:39:32;;;;;;;24.77;22.37;;;;;;;;;;5092072;28;20205;-80
2023/03/18 08:42:03;;;;;;;24.57;20.27;;;;;;;;;;5092526;28;20203;-79
2023/03/18 08:44:32;;;;;;;22.37;17.60;;;;;;;;;;5096909;28;20232;-79
2023/03/18 08:47:00;;;;;;;18.57;10.67;;;;;;;;;;5096463;28;20201;-80
2023/03/18 08:49:28;;;;;;;21.10;19.00;;;;;;;;;;5096141;28;20274;-80
2023/03/18 08:51:57;;;;;;;19.57;17.30;;;;;;;;;;5095838;28;20273;-80
2023/03/18 08:54:26;;;;;;;23.20;20.77;;;;;;;;;;5095942;28;20320;-80
2023/03/18 08:56:55;;;;;;;22.47;17.83;;;;;;;;;;5095973;28;20223;-80
2023/03/18 08:59:25;;;;;;;16.07;14.40;;;;;;;;;;5096298;28;20201;-79
2023/03/18 09:01:53;;;;;;;18.83;16.83;;;;;;;;;;5096014;28;20197;-80
2023/03/18 09:04:23;;;;;;;14.53;9.80;;;;;;;;;;5095820;28;20209;-80
2023/03/18 09:06:51;;;;;;;22.30;16.63;;;;;;;;;;5095776;28;20220;-80
2023/03/18 09:09:20;;;;;;;21.20;16.77;;;;;;;;;;5095763;28;20264;-80
2023/03/18 09:11:53;;;;;;;13.07;10.30;;;;;;;;;;5095851;28;20213;-79
2023/03/18 09:14:22;;;;;;;18.90;16.90;;;;;;;;;;5095658;28;20535;-80
2023/03/18 09:16:52;;;;;;;18.03;15.40;;;;;;;;;;5095635;28;20225;-80
2023/03/18 09:19:21;;;;;;;15.70;14.07;;;;;;;;;;5095635;28;20201;-80
2023/03/18 09:21:49;;;;;;;17.23;15.43;;;;;;;;;;5095581;28;20193;-80
2023/03/18 09:24:18;;;;;;;15.60;14.10;;;;;;;;;;5095639;28;20200;-80
2023/03/18 09:26:46;;;;;;;11.97;10.83;;;;;;;;;;5095461;28;20201;-79
2023/03/18 09:29:15;;;;;;;13.17;11.73;;;;;;;;;;5095469;28;20296;-80
2023/03/18 09:31:44;;;;;;;14.33;10.73;;;;;;;;;;5095534;28;20263;-80
2023/03/18 09:34:13;;;;;;;15.53;13.10;;;;;;;;;;5095196;28;20193;-80
2023/03/18 09:36:48;;;;;;;8.83;6.27;;;;;;;;;;5095373;28;20311;-80
2023/03/18 09:39:16;;;;;;;16.50;14.97;;;;;;;;;;5095182;28;20300;-80
2023/03/18 09:41:51;;;;;;;16.93;15.20;;;;;;;;;;5095127;28;20251;-80
2023/03/18 09:44:23;;;;;;;11.03;7.60;;;;;;;;;;5095248;28;20231;-80
2023/03/18 09:46:59;;;;;;;7.80;6.90;;;;;;;;;;5095436;28;20217;-80
2023/03/18 09:49:38;;;;;;;17.53;15.87;;;;;;;;;;5095367;28;20206;-80
2023/03/18 09:52:15;;;;;;;15.80;14.07;;;;;;;;;;5094760;28;20213;-80
2023/03/18 09:54:47;;;;;;;16.03;14.33;;;;;;;;;;5094154;28;20297;-80
2023/03/18 09:57:18;;;;;;;13.33;11.90;;;;;;;;;;5095169;28;20198;-80
2023/03/18 09:59:48;;;;;;;13.93;11.80;;;;;;;;;;5094832;28;20204;-80
2023/03/18 10:02:19;;;;;;;15.10;13.77;;;;;;;;;;5094815;28;20198;-80
2023/03/18 10:04:52;;;;;;;13.07;10.23;;;;;;;;;;5094476;28;20241;-81
2023/03/18 10:07:23;;;;;;;12.40;11.20;;;;;;;;;;5094555;28;20239;-80
2023/03/18 10:09:54;;;;;;;11.10;8.97;;;;;;;;;;5094156;28;20270;-80
2023/03/18 10:12:29;;;;;;;16.70;15.30;;;;;;;;;;5094371;28;20221;-80
2023/03/18 10:15:01;;;;;;;16.03;14.63;;;;;;;;;;5094275;28;20305;-80
2023/03/18 10:17:31;;;;;;;19.13;17.63;;;;;;;;;;5094812;28;20203;-80
2023/03/18 10:20:03;;;;;;;16.53;15.20;;;;;;;;;;5094706;28;20219;-80
2023/03/18 10:22:50;;;;;;;18.07;16.47;;;;;;;;;;5094682;28;20263;-80
2023/03/18 10:25:21;;;;;;;14.70;13.40;;;;;;;;;;5094571;28;20292;-80
2023/03/18 10:27:58;;;;;;;16.73;15.23;;;;;;;;;;5094372;28;20242;-80
2023/03/18 10:30:36;;;;;;;17.40;15.73;;;;;;;;;;5094332;28;20256;-80
2023/03/18 10:33:09;;;;;;;11.37;10.27;;;;;;;;;;5094344;28;20252;-80
2023/03/18 10:35:42;;;;;;;9.27;8.47;;;;;;;;;;5091171;28;20480;-80
2023/03/18 10:38:16;;;;;;;16.20;14.53;;;;;;;;;;5085139;28;20287;-80
2023/03/18 10:40:46;;;;;;;16.23;14.73;;;;;;;;;;5073611;28;20211;-80
2023/03/18 10:43:18;;;;;;;10.43;9.40;;;;;;;;;;5091224;28;20205;-80
2023/03/18 10:45:47;;;;;;;14.30;10.77;;;;;;;;;;5094367;28;20199;-80
2023/03/18 10:48:19;;;;;;;8.20;7.40;;;;;;;;;;5092484;28;20225;-80
2023/03/18 10:50:53;;;;;;;14.73;12.33;;;;;;;;;;5093674;28;20218;-80
2023/03/18 10:53:24;;;;;;;10.93;9.53;;;;;;;;;;5092340;28;20308;-80
2023/03/18 10:55:56;;;;;;;12.87;11.13;;;;;;;;;;5093794;28;20223;-81
2023/03/18 10:58:24;;;;;;;15.07;13.40;;;;;;;;;;5094027;28;20231;-80
2023/03/18 11:00:54;;;;;;;12.03;10.10;;;;;;;;;;5093618;28;20210;-80
2023/03/18 11:03:25;;;;;;;7.53;5.23;;;;;;;;;;5092981;28;20198;-80
2023/03/18 11:05:55;;;;;;;12.37;11.10;;;;;;;;;;5093539;28;20223;-80
2023/03/18 11:08:36;;;;;;;12.70;10.47;;;;;;;;;;5093842;28;20227;-80
2023/03/18 11:11:18;;;;;;;17.70;13.60;;;;;;;;;;5092563;28;20236;-80
2023/03/18 11:13:47;;;;;;;15.23;13.90;;;;;;;;;;5093425;28;20234;-81
2023/03/18 11:16:22;;;;;;;16.77;15.00;;;;;;;;;;5073486;28;20371;-80
2023/03/18 11:18:51;;;;;;;11.13;10.00;;;;;;;;;;5073238;28;20264;-80
2023/03/18 11:21:21;;;;;;;11.77;10.67;;;;;;;;;;5073109;28;20203;-80
2023/03/18 11:24:06;;;;;;;12.03;10.67;;;;;;;;;;5073065;28;20200;-80
2023/03/18 11:26:44;;;;;;;10.77;9.77;;;;;;;;;;5080127;28;20207;-80
2023/03/18 11:29:14;;;;;;;14.77;13.33;;;;;;;;;;5092641;28;20198;-80
2023/03/18 11:31:50;;;;;;;10.80;9.03;;;;;;;;;;5092608;28;20246;-81
2023/03/18 11:34:19;;;;;;;14.07;12.40;;;;;;;;;;5093226;28;20194;-80
2023/03/18 11:36:57;;;;;;;15.33;10.50;;;;;;;;;;5093165;28;20203;-80
2023/03/18 11:39:27;;;;;;;12.63;11.37;;;;;;;;;;5091281;28;20230;-80
2023/03/18 11:41:56;;;;;;;10.97;9.43;;;;;;;;;;5089173;28;20232;-80
2023/03/18 11:44:26;;;;;;;9.10;5.37;;;;;;;;;;5089982;28;20219;-80
2023/03/18 11:46:56;;;;;;;7.67;6.73;;;;;;;;;;5093027;28;20199;-80
2023/03/18 11:49:27;;;;;;;15.03;13.57;;;;;;;;;;5093008;28;20207;-80
2023/03/18 11:52:01;;;;;;;14.90;13.50;;;;;;;;;;5092876;28;20310;-81
2023/03/18 11:54:55;;;;;;;11.60;10.40;;;;;;;;;;5091586;28;20258;-80
2023/03/18 11:57:27;;;;;;;16.63;15.03;;;;;;;;;;5092563;28;20204;-80
2023/03/18 12:00:01;;;;;;;15.53;13.23;;;;;;;;;;5092626;28;20269;-80
2023/03/18 12:02:35;;;;;;;16.13;14.47;;;;;;;;;;5092177;28;20200;-80
2023/03/18 12:05:11;;;;;;;12.23;10.43;;;;;;;;;;5091527;28;20237;-80
2023/03/18 12:07:50;;;;;;;19.57;17.97;;;;;;;;;;5089350;28;20208;-80
2023/03/18 12:10:24;;;;;;;16.37;14.93;;;;;;;;;;5092089;28;20253;-80
2023/03/18 12:13:04;;;;;;;15.00;13.50;;;;;;;;;;5092423;28;20214;-81
2023/03/18 12:15:38;;;;;;;15.43;13.20;;;;;;;;;;5089572;28;20242;-82
2023/03/18 12:18:10;;;;;;;13.77;10.77;;;;;;;;;;5090222;28;20249;-81
2023/03/18 12:20:43;;;;;;;16.33;14.67;;;;;;;;;;5092118;28;20297;-81
2023/03/18 12:23:22;;;;;;;14.97;13.47;;;;;;;;;;5090731;28;20209;-82
2023/03/18 12:25:57;;;;;;;14.40;12.47;;;;;;;;;;5087485;28;20296;-81
2023/03/18 12:28:33;;;;;;;11.03;9.87;;;;;;;;;;5091430;28;20203;-82
2023/03/18 12:31:14;;;;;;;14.90;12.47;;;;;;;;;;5091945;28;20239;-82
2023/03/18 12:33:49;;;;;;;15.20;11.20;;;;;;;;;;5088994;28;20230;-82
2023/03/18 12:36:21;;;;;;;12.67;11.27;;;;;;;;;;5090479;28;20257;-81
2023/03/18 12:39:04;;;;;;;13.13;11.73;;;;;;;;;;5091149;28;20231;-82
2023/03/18 12:41:37;;;;;;;11.53;9.57;;;;;;;;;;5092325;28;20227;-81
2023/03/18 12:44:16;;;;;;;12.77;11.30;;;;;;;;;;5089678;28;20239;-82
2023/03/18 12:46:46;;;;;;;9.80;7.43;;;;;;;;;;5071933;28;20279;-82
2023/03/18 12:49:18;;;;;;;13.10;9.17;;;;;;;;;;5071493;28;20263;-82
2023/03/18 12:51:51;;;;;;;13.73;12.27;;;;;;;;;;5090126;28;20205;-82
2023/03/18 12:54:24;;;;;;;7.83;6.60;;;;;;;;;;5090643;28;20237;-81
2023/03/18 12:56:56;;;;;;;15.37;13.87;;;;;;;;;;5091918;28;20222;-82
2023/03/18 12:59:27;;;;;;;12.90;11.43;;;;;;;;;;5092000;28;20234;-82
2023/03/18 13:02:02;;;;;;;11.83;10.63;;;;;;;;;;5091395;28;20202;-82
2023/03/18 13:04:35;;;;;;;13.90;12.10;;;;;;;;;;5092073;28;20221;-82
2023/03/18 13:07:13;;;;;;;16.43;12.40;;;;;;;;;;5091892;28;20234;-82
2023/03/18 13:09:44;;;;;;;11.17;9.43;;;;;;;;;;5071890;28;20272;-82
2023/03/18 13:12:15;;;;;;;6.33;5.33;;;;;;;;;;5071249;28;20272;-82
2023/03/18 13:14:48;;;;;;;10.60;9.53;;;;;;;;;;5071791;28;20303;-82
2023/03/18 13:17:18;;;;;;;9.73;8.73;;;;;;;;;;5071876;28;20216;-82
2023/03/18 13:19:46;;;;;;;8.90;8.00;;;;;;;;;;5071443;28;20212;-82
2023/03/18 13:22:25;;;;;;;9.63;7.50;;;;;;;;;;5071522;28;20208;-82
2023/03/18 13:25:00;;;;;;;10.43;7.13;;;;;;;;;;5085898;28;20252;-82
2023/03/18 13:27:46;;;;;;;12.10;10.40;;;;;;;;;;5091731;28;20302;-82
2023/03/18 13:30:19;;;;;;;8.73;7.70;;;;;;;;;;5093855;28;20235;-82
2023/03/18 13:32:59;;;;;;;8.47;6.97;;;;;;;;;;5094850;28;20329;-82
2023/03/18 13:35:35;;;;;;;5.47;4.20;;;;;;;;;;5094337;28;20212;-82
2023/03/18 13:38:08;;;;;;;8.57;7.67;;;;;;;;;;5095338;28;20196;-82
2023/03/18 13:40:51;;;;;;;9.63;8.40;;;;;;;;;;5076318;28;20208;-81
2023/03/18 13:43:21;;;;;;;9.70;8.70;;;;;;;;;;5077829;28;20270;-81
2023/03/18 13:45:51;;;;;;;6.53;4.37;;;;;;;;;;5094605;28;20238;-81
2023/03/18 13:48:22;;;;;;;7.87;7.07;;;;;;;;;;5095243;28;20239;-81
2023/03/18 13:50:51;;;;;;;8.23;6.60;;;;;;;;;;5091195;28;20200;-81
2023/03/18 13:53:23;;;;;;;12.90;9.33;;;;;;;;;;5093796;28;20211;-81
2023/03/18 13:56:00;;;;;;;10.33;9.27;;;;;;;;;;5074794;28;20270;-82
2023/03/18 13:58:33;;;;;;;15.07;11.03;;;;;;;;;;5074793;28;20196;-82
2023/03/18 14:01:21;;;;;;;10.40;9.00;;;;;;;;;;5074463;28;20207;-81
2023/03/18 14:03:54;;;;;;;9.70;8.57;;;;;;;;;;5078061;28;20223;-82
2023/03/18 14:06:25;;;;;;;7.67;6.87;;;;;;;;;;5094749;28;20233;-81
2023/03/18 14:08:54;;;;;;;8.70;7.90;;;;;;;;;;5093058;28;20199;-81
2023/03/18 14:11:45;;;;;;;12.67;7.63;;;;;;;;;;5094322;28;20232;-81
2023/03/18 14:14:32;;;;;;;10.30;8.33;;;;;;;;;;5093944;28;20273;-81
2023/03/18 14:17:01;;;;;;;9.53;8.53;;;;;;;;;;5094850;28;20199;-81
2023/03/18 14:19:31;;;;;;;8.40;7.00;;;;;;;;;;5094697;28;20199;-81
2023/03/18 14:22:06;;;;;;;8.50;7.10;;;;;;;;;;5093975;28;20200;-81
2023/03/18 14:24:35;;;;;;;3.90;3.10;;;;;;;;;;5090795;28;20203;-81
2023/03/18 14:27:16;;;;;;;9.87;8.93;;;;;;;;;;5089495;28;20227;-82
2023/03/18 14:29:46;;;;;;;11.07;9.27;;;;;;;;;;5093977;28;20199;-82
2023/03/18 14:32:37;;;;;;;10.03;7.63;;;;;;;;;;5094278;28;20196;-82
2023/03/18 14:35:26;;;;;;;9.20;7.07;;;;;;;;;;5094088;28;20272;-82
2023/03/18 14:38:00;;;;;;;6.50;5.87;;;;;;;;;;5093618;28;20215;-82
2023/03/18 14:40:29;;;;;;;6.23;4.17;;;;;;;;;;5093605;28;20199;-81
2023/03/18 14:42:59;;;;;;;7.53;6.07;;;;;;;;;;5094222;28;20203;-82
2023/03/18 14:45:31;;;;;;;6.00;4.17;;;;;;;;;;5093750;28;20200;-81